sensor_id;sensor_type;location;lat;lon;timestamp;temperature;humidity
52127;DHT22;38120;53.176;6.614;2023-12-07T00:00:20;2.70;99.90
52127;DHT22;38120;53.176;6.614;2023-12-07T00:02:45;2.70;99.90
52127;DHT22;38120;53.176;6.614;2023-12-07T00:05:11;3.10;99.90
52127;DHT22;38120;53.176;6.614;2023-12-07T00:07:37;2.70;99.90
52127;DHT22;38120;53.176;6.614;2023-12-07T00:10:08;2.70;99.90
52127;DHT22;38120;53.176;6.614;2023-12-07T00:12:42;2.70;99.90
52127;DHT22;38120;53.176;6.614;2023-12-07T00:15:08;2.70;99.90
52127;DHT22;38120;53.176;6.614;2023-12-07T00:17:34;2.70;99.90
52127;DHT22;38120;53.176;6.614;2023-12-07T00:20:00;3.30;99.90
52127;DHT22;38120;53.176;6.614;2023-12-07T00:22:25;2.70;99.90
52127;DHT22;38120;53.176;6.614;2023-12-07T00:24:52;2.70;99.90
52127;DHT22;38120;53.176;6.614;2023-12-07T00:27:18;2.70;99.90
52127;DHT22;38120;53.176;6.614;2023-12-07T00:29:44;3.00;99.90
52127;DHT22;38120;53.176;6.614;2023-12-07T00:32:09;2.70;99.90
52127;DHT22;38120;53.176;6.614;2023-12-07T00:34:35;2.70;99.90
52127;DHT22;38120;53.176;6.614;2023-12-07T00:37:01;2.70;99.90
52127;DHT22;38120;53.176;6.614;2023-12-07T00:39:26;2.70;99.90
52127;DHT22;38120;53.176;6.614;2023-12-07T00:41:52;2.80;99.90
52127;DHT22;38120;53.176;6.614;2023-12-07T00:44:18;2.70;99.90
52127;DHT22;38120;53.176;6.614;2023-12-07T00:46:44;2.70;99.90
52127;DHT22;38120;53.176;6.614;2023-12-07T00:49:09;2.70;99.90
52127;DHT22;38120;53.176;6.614;2023-12-07T00:51:35;2.70;99.90
52127;DHT22;38120;53.176;6.614;2023-12-07T00:54:01;2.70;99.90
52127;DHT22;38120;53.176;6.614;2023-12-07T00:56:27;2.60;99.90
52127;DHT22;38120;53.176;6.614;2023-12-07T00:58:52;2.70;99.90
52127;DHT22;38120;53.176;6.614;2023-12-07T01:01:18;2.70;99.90
52127;DHT22;38120;53.176;6.614;2023-12-07T01:03:44;2.70;99.90
52127;DHT22;38120;53.176;6.614;2023-12-07T01:06:09;2.60;99.90
52127;DHT22;38120;53.176;6.614;2023-12-07T01:08:37;2.60;99.90
52127;DHT22;38120;53.176;6.614;2023-12-07T01:11:04;2.70;99.90
52127;DHT22;38120;53.176;6.614;2023-12-07T01:13:30;3.00;99.90
52127;DHT22;38120;53.176;6.614;2023-12-07T01:15:56;2.60;99.90
52127;DHT22;38120;53.176;6.614;2023-12-07T01:18:22;2.60;99.90
52127;DHT22;38120;53.176;6.614;2023-12-07T01:20:47;2.80;99.90
52127;DHT22;38120;53.176;6.614;2023-12-07T01:23:14;2.80;99.90
52127;DHT22;38120;53.176;6.614;2023-12-07T01:25:40;2.70;99.90
52127;DHT22;38120;53.176;6.614;2023-12-07T01:28:06;2.60;99.90
52127;DHT22;38120;53.176;6.614;2023-12-07T01:30:31;2.60;99.90
52127;DHT22;38120;53.176;6.614;2023-12-07T01:32:57;2.60;99.90
52127;DHT22;38120;53.176;6.614;2023-12-07T01:35:23;2.60;99.90
52127;DHT22;38120;53.176;6.614;2023-12-07T01:37:48;2.60;99.90
52127;DHT22;38120;53.176;6.614;2023-12-07T01:40:14;2.60;99.90
52127;DHT22;38120;53.176;6.614;2023-12-07T01:42:48;2.50;99.90
52127;DHT22;38120;53.176;6.614;2023-12-07T01:45:14;2.60;99.90
52127;DHT22;38120;53.176;6.614;2023-12-07T01:47:41;2.60;99.90
52127;DHT22;38120;53.176;6.614;2023-12-07T01:50:07;2.60;99.90
52127;DHT22;38120;53.176;6.614;2023-12-07T01:52:38;2.60;99.90
52127;DHT22;38120;53.176;6.614;2023-12-07T01:55:06;2.50;99.90
52127;DHT22;38120;53.176;6.614;2023-12-07T01:57:34;2.50;99.90
52127;DHT22;38120;53.176;6.614;2023-12-07T02:00:01;2.60;99.90
52127;DHT22;38120;53.176;6.614;2023-12-07T02:02:27;2.60;99.90
52127;DHT22;38120;53.176;6.614;2023-12-07T02:04:52;2.60;99.90
52127;DHT22;38120;53.176;6.614;2023-12-07T02:07:19;2.60;99.90
52127;DHT22;38120;53.176;6.614;2023-12-07T02:09:45;2.60;99.90
52127;DHT22;38120;53.176;6.614;2023-12-07T02:12:10;3.20;99.90
52127;DHT22;38120;53.176;6.614;2023-12-07T02:14:36;2.50;99.90
52127;DHT22;38120;53.176;6.614;2023-12-07T02:17:30;2.50;99.90
52127;DHT22;38120;53.176;6.614;2023-12-07T02:22:47;2.50;99.90
52127;DHT22;38120;53.176;6.614;2023-12-07T02:25:14;2.50;99.90
52127;DHT22;38120;53.176;6.614;2023-12-07T02:27:43;2.50;99.90
52127;DHT22;38120;53.176;6.614;2023-12-07T02:30:11;3.10;99.90
52127;DHT22;38120;53.176;6.614;2023-12-07T02:32:39;2.50;99.90
52127;DHT22;38120;53.176;6.614;2023-12-07T02:35:06;2.50;99.90
52127;DHT22;38120;53.176;6.614;2023-12-07T02:37:51;2.50;99.90
52127;DHT22;38120;53.176;6.614;2023-12-07T02:40:25;2.50;99.90
52127;DHT22;38120;53.176;6.614;2023-12-07T02:42:56;2.50;99.90
52127;DHT22;38120;53.176;6.614;2023-12-07T02:45:29;2.50;99.90
52127;DHT22;38120;53.176;6.614;2023-12-07T02:47:57;2.50;99.90
52127;DHT22;38120;53.176;6.614;2023-12-07T02:50:22;2.50;99.90
52127;DHT22;38120;53.176;6.614;2023-12-07T02:52:48;2.50;99.90
52127;DHT22;38120;53.176;6.614;2023-12-07T02:55:14;2.50;99.90
52127;DHT22;38120;53.176;6.614;2023-12-07T02:57:39;2.70;99.90
52127;DHT22;38120;53.176;6.614;2023-12-07T03:00:06;2.50;99.90
52127;DHT22;38120;53.176;6.614;2023-12-07T03:02:41;2.50;99.90
52127;DHT22;38120;53.176;6.614;2023-12-07T03:05:07;2.50;99.90
52127;DHT22;38120;53.176;6.614;2023-12-07T03:07:33;2.50;99.90
52127;DHT22;38120;53.176;6.614;2023-12-07T03:09:59;2.50;99.90
52127;DHT22;38120;53.176;6.614;2023-12-07T03:12:25;2.50;99.90
52127;DHT22;38120;53.176;6.614;2023-12-07T03:14:51;2.50;99.90
52127;DHT22;38120;53.176;6.614;2023-12-07T03:17:17;2.50;99.90
52127;DHT22;38120;53.176;6.614;2023-12-07T03:19:43;2.50;99.90
52127;DHT22;38120;53.176;6.614;2023-12-07T03:22:09;2.70;99.90
52127;DHT22;38120;53.176;6.614;2023-12-07T03:24:35;2.50;99.90
52127;DHT22;38120;53.176;6.614;2023-12-07T03:27:01;2.50;99.90
52127;DHT22;38120;53.176;6.614;2023-12-07T03:29:27;2.50;99.90
52127;DHT22;38120;53.176;6.614;2023-12-07T03:31:52;2.50;99.90
52127;DHT22;38120;53.176;6.614;2023-12-07T03:34:18;2.50;99.90
52127;DHT22;38120;53.176;6.614;2023-12-07T03:36:48;2.50;99.90
52127;DHT22;38120;53.176;6.614;2023-12-07T03:39:14;2.50;99.90
52127;DHT22;38120;53.176;6.614;2023-12-07T03:41:41;3.00;99.90
52127;DHT22;38120;53.176;6.614;2023-12-07T03:44:07;2.50;99.90
52127;DHT22;38120;53.176;6.614;2023-12-07T03:46:33;3.70;99.90
52127;DHT22;38120;53.176;6.614;2023-12-07T03:48:58;2.70;99.90
52127;DHT22;38120;53.176;6.614;2023-12-07T03:51:28;2.50;99.90
52127;DHT22;38120;53.176;6.614;2023-12-07T03:53:55;2.50;99.90
52127;DHT22;38120;53.176;6.614;2023-12-07T03:56:28;2.50;99.90
52127;DHT22;38120;53.176;6.614;2023-12-07T03:58:55;2.50;99.90
52127;DHT22;38120;53.176;6.614;2023-12-07T04:01:23;2.50;99.90
52127;DHT22;38120;53.176;6.614;2023-12-07T04:03:49;2.50;99.90
52127;DHT22;38120;53.176;6.614;2023-12-07T04:06:15;2.50;99.90
52127;DHT22;38120;53.176;6.614;2023-12-07T04:08:42;2.90;99.90
52127;DHT22;38120;53.176;6.614;2023-12-07T04:11:07;2.50;99.90
52127;DHT22;38120;53.176;6.614;2023-12-07T04:13:33;2.50;99.90
52127;DHT22;38120;53.176;6.614;2023-12-07T04:15:59;2.50;99.90
52127;DHT22;38120;53.176;6.614;2023-12-07T04:18:25;2.50;99.90
52127;DHT22;38120;53.176;6.614;2023-12-07T04:20:50;2.50;99.90
52127;DHT22;38120;53.176;6.614;2023-12-07T04:23:16;2.50;99.90
52127;DHT22;38120;53.176;6.614;2023-12-07T04:25:42;2.50;99.90
52127;DHT22;38120;53.176;6.614;2023-12-07T04:28:07;2.50;99.90
52127;DHT22;38120;53.176;6.614;2023-12-07T04:30:33;4.00;99.90
52127;DHT22;38120;53.176;6.614;2023-12-07T04:32:59;2.70;99.90
52127;DHT22;38120;53.176;6.614;2023-12-07T04:35:24;2.50;99.90
52127;DHT22;38120;53.176;6.614;2023-12-07T04:37:50;2.50;99.90
52127;DHT22;38120;53.176;6.614;2023-12-07T04:40:16;2.40;99.90
52127;DHT22;38120;53.176;6.614;2023-12-07T04:42:41;2.40;99.90
52127;DHT22;38120;53.176;6.614;2023-12-07T04:45:07;2.40;99.90
52127;DHT22;38120;53.176;6.614;2023-12-07T04:47:33;2.40;99.90
52127;DHT22;38120;53.176;6.614;2023-12-07T04:49:59;2.30;99.90
52127;DHT22;38120;53.176;6.614;2023-12-07T04:52:25;2.30;99.90
52127;DHT22;38120;53.176;6.614;2023-12-07T04:54:51;2.40;99.90
52127;DHT22;38120;53.176;6.614;2023-12-07T04:57:16;2.30;99.90
52127;DHT22;38120;53.176;6.614;2023-12-07T04:59:42;2.20;99.90
52127;DHT22;38120;53.176;6.614;2023-12-07T05:02:14;2.20;99.90
52127;DHT22;38120;53.176;6.614;2023-12-07T05:04:39;2.20;99.90
52127;DHT22;38120;53.176;6.614;2023-12-07T05:07:05;2.20;99.90
52127;DHT22;38120;53.176;6.614;2023-12-07T05:09:31;2.20;99.90
52127;DHT22;38120;53.176;6.614;2023-12-07T05:11:57;3.20;99.90
52127;DHT22;38120;53.176;6.614;2023-12-07T05:14:23;2.20;99.90
52127;DHT22;38120;53.176;6.614;2023-12-07T05:16:49;2.20;99.90
52127;DHT22;38120;53.176;6.614;2023-12-07T05:19:27;2.20;99.90
52127;DHT22;38120;53.176;6.614;2023-12-07T05:21:53;2.20;99.90
52127;DHT22;38120;53.176;6.614;2023-12-07T05:24:19;2.20;99.90
52127;DHT22;38120;53.176;6.614;2023-12-07T05:26:45;2.20;99.90
52127;DHT22;38120;53.176;6.614;2023-12-07T05:29:12;2.20;99.90
52127;DHT22;38120;53.176;6.614;2023-12-07T05:31:38;2.20;99.90
52127;DHT22;38120;53.176;6.614;2023-12-07T05:34:04;2.30;99.90
52127;DHT22;38120;53.176;6.614;2023-12-07T05:36:30;2.20;99.90
52127;DHT22;38120;53.176;6.614;2023-12-07T05:38:55;2.10;99.90
52127;DHT22;38120;53.176;6.614;2023-12-07T05:41:21;2.10;99.90
52127;DHT22;38120;53.176;6.614;2023-12-07T05:43:47;2.10;99.90
52127;DHT22;38120;53.176;6.614;2023-12-07T05:46:12;2.10;99.90
52127;DHT22;38120;53.176;6.614;2023-12-07T05:48:38;2.10;99.90
52127;DHT22;38120;53.176;6.614;2023-12-07T05:51:04;2.10;99.90
52127;DHT22;38120;53.176;6.614;2023-12-07T05:53:30;2.10;99.90
52127;DHT22;38120;53.176;6.614;2023-12-07T05:55:58;2.00;99.90
52127;DHT22;38120;53.176;6.614;2023-12-07T05:58:24;1.50;99.90
52127;DHT22;38120;53.176;6.614;2023-12-07T06:00:50;2.10;99.90
52127;DHT22;38120;53.176;6.614;2023-12-07T06:03:16;2.10;99.90
52127;DHT22;38120;53.176;6.614;2023-12-07T06:05:41;2.10;99.90
52127;DHT22;38120;53.176;6.614;2023-12-07T06:08:07;2.00;99.90
52127;DHT22;38120;53.176;6.614;2023-12-07T06:10:34;2.00;99.90
52127;DHT22;38120;53.176;6.614;2023-12-07T06:13:01;2.00;99.90
52127;DHT22;38120;53.176;6.614;2023-12-07T06:15:26;2.10;99.90
52127;DHT22;38120;53.176;6.614;2023-12-07T06:17:54;2.00;99.90
52127;DHT22;38120;53.176;6.614;2023-12-07T06:20:19;2.00;99.90
52127;DHT22;38120;53.176;6.614;2023-12-07T06:22:45;2.00;99.90
52127;DHT22;38120;53.176;6.614;2023-12-07T06:25:11;2.00;99.90
52127;DHT22;38120;53.176;6.614;2023-12-07T06:27:38;2.10;99.90
52127;DHT22;38120;53.176;6.614;2023-12-07T06:30:04;2.10;99.90
52127;DHT22;38120;53.176;6.614;2023-12-07T06:32:36;2.10;99.90
52127;DHT22;38120;53.176;6.614;2023-12-07T06:35:02;2.10;99.90
52127;DHT22;38120;53.176;6.614;2023-12-07T06:37:32;2.10;99.90
52127;DHT22;38120;53.176;6.614;2023-12-07T06:39:57;3.40;99.90
52127;DHT22;38120;53.176;6.614;2023-12-07T06:42:24;2.20;99.90
52127;DHT22;38120;53.176;6.614;2023-12-07T06:44:49;2.20;99.90
52127;DHT22;38120;53.176;6.614;2023-12-07T06:47:16;2.20;99.90
52127;DHT22;38120;53.176;6.614;2023-12-07T06:49:42;2.30;99.90
52127;DHT22;38120;53.176;6.614;2023-12-07T06:52:07;2.20;99.90
52127;DHT22;38120;53.176;6.614;2023-12-07T06:54:34;2.30;99.90
52127;DHT22;38120;53.176;6.614;2023-12-07T06:57:00;2.30;99.90
52127;DHT22;38120;53.176;6.614;2023-12-07T06:59:25;2.30;99.90
52127;DHT22;38120;53.176;6.614;2023-12-07T07:01:51;2.30;99.90
52127;DHT22;38120;53.176;6.614;2023-12-07T07:04:17;2.30;99.90
52127;DHT22;38120;53.176;6.614;2023-12-07T07:06:44;2.30;99.90
52127;DHT22;38120;53.176;6.614;2023-12-07T07:09:09;1.00;99.90
52127;DHT22;38120;53.176;6.614;2023-12-07T07:11:35;2.20;99.90
52127;DHT22;38120;53.176;6.614;2023-12-07T07:14:02;2.30;99.90
52127;DHT22;38120;53.176;6.614;2023-12-07T07:16:28;2.30;99.90
52127;DHT22;38120;53.176;6.614;2023-12-07T07:18:53;3.90;99.90
52127;DHT22;38120;53.176;6.614;2023-12-07T07:21:19;2.20;99.90
52127;DHT22;38120;53.176;6.614;2023-12-07T07:23:45;2.30;99.90
52127;DHT22;38120;53.176;6.614;2023-12-07T07:26:11;2.30;99.90
52127;DHT22;38120;53.176;6.614;2023-12-07T07:28:43;2.30;99.90
52127;DHT22;38120;53.176;6.614;2023-12-07T07:31:09;2.30;99.90
52127;DHT22;38120;53.176;6.614;2023-12-07T07:33:34;2.40;99.90
52127;DHT22;38120;53.176;6.614;2023-12-07T07:36:00;2.30;99.90
52127;DHT22;38120;53.176;6.614;2023-12-07T07:38:26;2.30;99.90
52127;DHT22;38120;53.176;6.614;2023-12-07T07:40:52;2.40;99.90
52127;DHT22;38120;53.176;6.614;2023-12-07T07:43:18;2.30;99.90
52127;DHT22;38120;53.176;6.614;2023-12-07T07:45:44;2.40;99.90
52127;DHT22;38120;53.176;6.614;2023-12-07T07:48:11;2.30;99.90
52127;DHT22;38120;53.176;6.614;2023-12-07T07:50:37;2.40;99.90
52127;DHT22;38120;53.176;6.614;2023-12-07T07:53:04;2.40;99.90
52127;DHT22;38120;53.176;6.614;2023-12-07T07:55:30;2.40;99.90
52127;DHT22;38120;53.176;6.614;2023-12-07T07:57:56;2.40;99.90
52127;DHT22;38120;53.176;6.614;2023-12-07T08:00:22;2.30;99.90
52127;DHT22;38120;53.176;6.614;2023-12-07T08:02:51;1.80;99.90
52127;DHT22;38120;53.176;6.614;2023-12-07T08:05:17;2.40;99.90
52127;DHT22;38120;53.176;6.614;2023-12-07T08:07:43;2.40;99.90
52127;DHT22;38120;53.176;6.614;2023-12-07T08:10:08;2.40;99.90
52127;DHT22;38120;53.176;6.614;2023-12-07T08:12:34;2.40;99.90
52127;DHT22;38120;53.176;6.614;2023-12-07T08:15:01;2.40;99.90
52127;DHT22;38120;53.176;6.614;2023-12-07T08:17:26;2.40;99.90
52127;DHT22;38120;53.176;6.614;2023-12-07T08:19:55;2.40;99.90
52127;DHT22;38120;53.176;6.614;2023-12-07T08:22:21;2.40;99.90
52127;DHT22;38120;53.176;6.614;2023-12-07T08:24:46;2.40;99.90
52127;DHT22;38120;53.176;6.614;2023-12-07T08:27:18;2.40;99.90
52127;DHT22;38120;53.176;6.614;2023-12-07T08:29:43;2.50;99.90
52127;DHT22;38120;53.176;6.614;2023-12-07T08:32:09;2.50;99.90
52127;DHT22;38120;53.176;6.614;2023-12-07T08:34:34;2.50;99.90
52127;DHT22;38120;53.176;6.614;2023-12-07T08:37:03;2.50;99.90
52127;DHT22;38120;53.176;6.614;2023-12-07T08:39:28;2.50;99.90
52127;DHT22;38120;53.176;6.614;2023-12-07T08:41:54;2.40;99.90
52127;DHT22;38120;53.176;6.614;2023-12-07T08:44:20;2.40;99.90
52127;DHT22;38120;53.176;6.614;2023-12-07T08:46:46;2.40;99.90
52127;DHT22;38120;53.176;6.614;2023-12-07T08:49:14;2.40;99.90
52127;DHT22;38120;53.176;6.614;2023-12-07T08:51:46;2.30;99.90
52127;DHT22;38120;53.176;6.614;2023-12-07T08:54:11;2.30;99.90
52127;DHT22;38120;53.176;6.614;2023-12-07T08:56:37;2.30;99.90
52127;DHT22;38120;53.176;6.614;2023-12-07T08:59:03;2.20;99.90
52127;DHT22;38120;53.176;6.614;2023-12-07T09:01:28;2.20;99.90
52127;DHT22;38120;53.176;6.614;2023-12-07T09:03:58;2.10;99.90
52127;DHT22;38120;53.176;6.614;2023-12-07T09:06:23;2.10;99.90
52127;DHT22;38120;53.176;6.614;2023-12-07T09:08:49;2.40;99.90
52127;DHT22;38120;53.176;6.614;2023-12-07T09:11:15;2.00;99.90
52127;DHT22;38120;53.176;6.614;2023-12-07T09:13:40;2.10;99.90
52127;DHT22;38120;53.176;6.614;2023-12-07T09:16:06;2.10;99.90
52127;DHT22;38120;53.176;6.614;2023-12-07T09:18:34;2.10;99.90
52127;DHT22;38120;53.176;6.614;2023-12-07T09:21:01;2.10;99.90
52127;DHT22;38120;53.176;6.614;2023-12-07T09:23:26;2.10;99.90
52127;DHT22;38120;53.176;6.614;2023-12-07T09:25:52;2.10;99.90
52127;DHT22;38120;53.176;6.614;2023-12-07T09:28:23;2.10;99.90
52127;DHT22;38120;53.176;6.614;2023-12-07T09:30:49;2.10;99.90
52127;DHT22;38120;53.176;6.614;2023-12-07T09:33:15;2.10;99.90
52127;DHT22;38120;53.176;6.614;2023-12-07T09:35:40;2.20;99.90
52127;DHT22;38120;53.176;6.614;2023-12-07T09:38:06;2.20;99.90
52127;DHT22;38120;53.176;6.614;2023-12-07T09:40:32;2.20;99.90
52127;DHT22;38120;53.176;6.614;2023-12-07T09:42:58;2.30;99.90
52127;DHT22;38120;53.176;6.614;2023-12-07T09:45:24;2.20;99.90
52127;DHT22;38120;53.176;6.614;2023-12-07T09:47:51;2.30;99.90
52127;DHT22;38120;53.176;6.614;2023-12-07T09:50:18;2.30;99.90
52127;DHT22;38120;53.176;6.614;2023-12-07T09:52:44;3.30;99.90
52127;DHT22;38120;53.176;6.614;2023-12-07T09:55:10;2.30;99.90
52127;DHT22;38120;53.176;6.614;2023-12-07T09:57:39;2.30;99.90
52127;DHT22;38120;53.176;6.614;2023-12-07T10:00:05;2.30;99.90
52127;DHT22;38120;53.176;6.614;2023-12-07T10:02:38;2.40;99.90
52127;DHT22;38120;53.176;6.614;2023-12-07T10:05:09;2.40;99.90
52127;DHT22;38120;53.176;6.614;2023-12-07T10:07:46;2.40;99.90
52127;DHT22;38120;53.176;6.614;2023-12-07T10:10:14;2.50;99.90
52127;DHT22;38120;53.176;6.614;2023-12-07T10:12:52;2.50;99.90
52127;DHT22;38120;53.176;6.614;2023-12-07T10:15:19;2.60;99.90
52127;DHT22;38120;53.176;6.614;2023-12-07T10:17:52;2.60;99.90
52127;DHT22;38120;53.176;6.614;2023-12-07T10:20:20;2.70;99.90
52127;DHT22;38120;53.176;6.614;2023-12-07T10:23:07;2.70;99.90
52127;DHT22;38120;53.176;6.614;2023-12-07T10:25:36;2.80;99.90
52127;DHT22;38120;53.176;6.614;2023-12-07T10:28:02;2.90;99.90
52127;DHT22;38120;53.176;6.614;2023-12-07T10:30:32;2.90;99.90
52127;DHT22;38120;53.176;6.614;2023-12-07T10:32:58;2.90;99.90
52127;DHT22;38120;53.176;6.614;2023-12-07T10:35:24;2.90;99.90
52127;DHT22;38120;53.176;6.614;2023-12-07T10:37:51;3.00;99.90
52127;DHT22;38120;53.176;6.614;2023-12-07T10:40:16;3.20;99.90
52127;DHT22;38120;53.176;6.614;2023-12-07T10:42:47;3.00;99.90
52127;DHT22;38120;53.176;6.614;2023-12-07T10:45:14;3.00;99.90
52127;DHT22;38120;53.176;6.614;2023-12-07T10:47:43;3.00;99.90
52127;DHT22;38120;53.176;6.614;2023-12-07T10:50:10;3.40;99.90
52127;DHT22;38120;53.176;6.614;2023-12-07T10:52:53;3.10;99.90
52127;DHT22;38120;53.176;6.614;2023-12-07T10:55:21;3.20;99.90
52127;DHT22;38120;53.176;6.614;2023-12-07T10:57:52;3.20;99.90
52127;DHT22;38120;53.176;6.614;2023-12-07T11:00:18;3.30;99.90
52127;DHT22;38120;53.176;6.614;2023-12-07T11:02:45;3.30;99.90
52127;DHT22;38120;53.176;6.614;2023-12-07T11:05:11;4.30;99.90
52127;DHT22;38120;53.176;6.614;2023-12-07T11:07:52;3.30;99.90
52127;DHT22;38120;53.176;6.614;2023-12-07T11:10:39;3.40;99.90
52127;DHT22;38120;53.176;6.614;2023-12-07T11:13:35;3.40;99.90
52127;DHT22;38120;53.176;6.614;2023-12-07T11:16:03;3.50;99.90
52127;DHT22;38120;53.176;6.614;2023-12-07T11:18:29;3.50;99.90
52127;DHT22;38120;53.176;6.614;2023-12-07T11:20:55;3.50;99.90
52127;DHT22;38120;53.176;6.614;2023-12-07T11:23:21;3.50;99.90
52127;DHT22;38120;53.176;6.614;2023-12-07T11:25:48;3.60;99.90
52127;DHT22;38120;53.176;6.614;2023-12-07T11:28:15;3.50;99.90
52127;DHT22;38120;53.176;6.614;2023-12-07T11:30:47;3.50;99.90
52127;DHT22;38120;53.176;6.614;2023-12-07T11:33:14;3.50;99.90
52127;DHT22;38120;53.176;6.614;2023-12-07T11:38:28;3.60;99.90
52127;DHT22;38120;53.176;6.614;2023-12-07T11:40:55;3.50;99.90
52127;DHT22;38120;53.176;6.614;2023-12-07T11:45:56;3.60;99.90
52127;DHT22;38120;53.176;6.614;2023-12-07T11:48:22;3.60;99.90
52127;DHT22;38120;53.176;6.614;2023-12-07T11:51:01;3.60;99.90
52127;DHT22;38120;53.176;6.614;2023-12-07T11:53:29;3.60;99.90
52127;DHT22;38120;53.176;6.614;2023-12-07T11:55:59;3.60;99.90
52127;DHT22;38120;53.176;6.614;2023-12-07T11:58:27;3.60;99.90
52127;DHT22;38120;53.176;6.614;2023-12-07T12:00:53;3.60;99.90
52127;DHT22;38120;53.176;6.614;2023-12-07T12:03:20;3.60;99.90
52127;DHT22;38120;53.176;6.614;2023-12-07T12:05:46;3.60;99.90
52127;DHT22;38120;53.176;6.614;2023-12-07T12:08:12;3.60;99.90
52127;DHT22;38120;53.176;6.614;2023-12-07T12:10:41;3.60;99.90
52127;DHT22;38120;53.176;6.614;2023-12-07T12:13:08;3.50;99.90
52127;DHT22;38120;53.176;6.614;2023-12-07T12:15:34;3.40;99.90
52127;DHT22;38120;53.176;6.614;2023-12-07T12:18:01;3.40;99.90
52127;DHT22;38120;53.176;6.614;2023-12-07T12:20:28;4.10;99.90
52127;DHT22;38120;53.176;6.614;2023-12-07T12:22:54;3.20;99.90
52127;DHT22;38120;53.176;6.614;2023-12-07T12:25:22;3.20;99.90
52127;DHT22;38120;53.176;6.614;2023-12-07T12:27:54;3.10;99.90
52127;DHT22;38120;53.176;6.614;2023-12-07T12:30:21;3.10;99.90
52127;DHT22;38120;53.176;6.614;2023-12-07T12:32:50;3.10;99.90
52127;DHT22;38120;53.176;6.614;2023-12-07T12:35:19;2.90;99.90
52127;DHT22;38120;53.176;6.614;2023-12-07T12:37:46;2.80;99.90
52127;DHT22;38120;53.176;6.614;2023-12-07T12:40:12;2.70;99.90
52127;DHT22;38120;53.176;6.614;2023-12-07T12:42:46;2.50;99.90
52127;DHT22;38120;53.176;6.614;2023-12-07T12:45:13;2.60;99.90
52127;DHT22;38120;53.176;6.614;2023-12-07T12:47:40;2.50;99.90
52127;DHT22;38120;53.176;6.614;2023-12-07T12:50:07;2.50;99.90
52127;DHT22;38120;53.176;6.614;2023-12-07T12:52:33;2.50;99.90
52127;DHT22;38120;53.176;6.614;2023-12-07T12:54:59;2.40;99.90
52127;DHT22;38120;53.176;6.614;2023-12-07T12:57:25;2.40;99.90
52127;DHT22;38120;53.176;6.614;2023-12-07T12:59:51;2.20;99.90
52127;DHT22;38120;53.176;6.614;2023-12-07T13:02:17;2.20;99.90
52127;DHT22;38120;53.176;6.614;2023-12-07T13:04:44;2.20;99.90
52127;DHT22;38120;53.176;6.614;2023-12-07T13:07:11;2.20;99.90
52127;DHT22;38120;53.176;6.614;2023-12-07T13:09:38;2.20;99.90
52127;DHT22;38120;53.176;6.614;2023-12-07T13:12:04;2.20;99.90
52127;DHT22;38120;53.176;6.614;2023-12-07T13:14:30;2.20;99.90
52127;DHT22;38120;53.176;6.614;2023-12-07T13:16:55;2.10;99.90
52127;DHT22;38120;53.176;6.614;2023-12-07T13:19:21;2.00;99.90
52127;DHT22;38120;53.176;6.614;2023-12-07T13:21:47;2.10;99.90
52127;DHT22;38120;53.176;6.614;2023-12-07T13:24:13;2.10;99.90
52127;DHT22;38120;53.176;6.614;2023-12-07T13:26:39;2.00;99.90
52127;DHT22;38120;53.176;6.614;2023-12-07T13:29:05;2.00;99.90
52127;DHT22;38120;53.176;6.614;2023-12-07T13:31:30;3.30;99.90
52127;DHT22;38120;53.176;6.614;2023-12-07T13:33:56;1.80;99.90
52127;DHT22;38120;53.176;6.614;2023-12-07T13:36:22;1.80;99.90
52127;DHT22;38120;53.176;6.614;2023-12-07T13:38:51;1.80;99.90
52127;DHT22;38120;53.176;6.614;2023-12-07T13:41:17;1.80;99.90
52127;DHT22;38120;53.176;6.614;2023-12-07T13:43:42;1.80;99.90
52127;DHT22;38120;53.176;6.614;2023-12-07T13:46:08;1.90;99.90
52127;DHT22;38120;53.176;6.614;2023-12-07T13:48:34;1.80;99.90
52127;DHT22;38120;53.176;6.614;2023-12-07T13:51:00;1.80;99.90
52127;DHT22;38120;53.176;6.614;2023-12-07T13:53:26;1.80;99.90
52127;DHT22;38120;53.176;6.614;2023-12-07T13:55:52;1.70;99.90
52127;DHT22;38120;53.176;6.614;2023-12-07T13:58:17;1.80;99.90
52127;DHT22;38120;53.176;6.614;2023-12-07T14:00:43;1.80;99.90
52127;DHT22;38120;53.176;6.614;2023-12-07T14:03:12;1.70;99.90
52127;DHT22;38120;53.176;6.614;2023-12-07T14:05:40;2.00;99.90
52127;DHT22;38120;53.176;6.614;2023-12-07T14:08:07;1.70;99.90
52127;DHT22;38120;53.176;6.614;2023-12-07T14:10:33;1.60;99.90
52127;DHT22;38120;53.176;6.614;2023-12-07T14:13:00;1.70;99.90
52127;DHT22;38120;53.176;6.614;2023-12-07T14:15:26;1.60;99.90
52127;DHT22;38120;53.176;6.614;2023-12-07T14:17:52;1.70;99.90
52127;DHT22;38120;53.176;6.614;2023-12-07T14:20:18;1.70;99.90
52127;DHT22;38120;53.176;6.614;2023-12-07T14:22:46;1.70;99.90
52127;DHT22;38120;53.176;6.614;2023-12-07T14:25:12;0.00;99.90
52127;DHT22;38120;53.176;6.614;2023-12-07T14:27:37;1.60;99.90
52127;DHT22;38120;53.176;6.614;2023-12-07T14:30:03;1.60;99.90
52127;DHT22;38120;53.176;6.614;2023-12-07T14:32:29;1.60;99.90
52127;DHT22;38120;53.176;6.614;2023-12-07T14:34:55;1.60;99.90
52127;DHT22;38120;53.176;6.614;2023-12-07T14:37:21;1.60;99.90
52127;DHT22;38120;53.176;6.614;2023-12-07T14:39:47;2.20;99.90
52127;DHT22;38120;53.176;6.614;2023-12-07T14:42:13;1.60;99.90
52127;DHT22;38120;53.176;6.614;2023-12-07T14:44:39;1.70;99.90
52127;DHT22;38120;53.176;6.614;2023-12-07T14:47:05;1.90;99.90
52127;DHT22;38120;53.176;6.614;2023-12-07T14:49:31;1.70;99.90
52127;DHT22;38120;53.176;6.614;2023-12-07T14:51:56;1.70;99.90
52127;DHT22;38120;53.176;6.614;2023-12-07T14:54:24;1.70;99.90
52127;DHT22;38120;53.176;6.614;2023-12-07T14:56:50;1.70;99.90
52127;DHT22;38120;53.176;6.614;2023-12-07T14:59:15;1.70;99.90
52127;DHT22;38120;53.176;6.614;2023-12-07T15:01:42;1.80;99.90
52127;DHT22;38120;53.176;6.614;2023-12-07T15:04:08;2.40;99.90
52127;DHT22;38120;53.176;6.614;2023-12-07T15:06:34;1.80;99.90
52127;DHT22;38120;53.176;6.614;2023-12-07T15:09:01;1.80;99.90
52127;DHT22;38120;53.176;6.614;2023-12-07T15:11:31;1.80;99.90
52127;DHT22;38120;53.176;6.614;2023-12-07T15:13:57;1.80;99.90
52127;DHT22;38120;53.176;6.614;2023-12-07T15:16:22;2.10;99.90
52127;DHT22;38120;53.176;6.614;2023-12-07T15:18:48;1.90;99.90
52127;DHT22;38120;53.176;6.614;2023-12-07T15:21:14;1.90;99.90
52127;DHT22;38120;53.176;6.614;2023-12-07T15:23:41;1.90;99.90
52127;DHT22;38120;53.176;6.614;2023-12-07T15:26:07;1.90;99.90
52127;DHT22;38120;53.176;6.614;2023-12-07T15:28:35;1.90;99.90
52127;DHT22;38120;53.176;6.614;2023-12-07T15:31:02;2.00;99.90
52127;DHT22;38120;53.176;6.614;2023-12-07T15:33:29;2.00;99.90
52127;DHT22;38120;53.176;6.614;2023-12-07T15:35:56;2.60;99.90
52127;DHT22;38120;53.176;6.614;2023-12-07T15:38:24;2.00;99.90
52127;DHT22;38120;53.176;6.614;2023-12-07T15:40:50;2.00;99.90
52127;DHT22;38120;53.176;6.614;2023-12-07T15:43:17;2.00;99.90
52127;DHT22;38120;53.176;6.614;2023-12-07T15:45:43;2.00;99.90
52127;DHT22;38120;53.176;6.614;2023-12-07T15:48:11;2.00;99.90
52127;DHT22;38120;53.176;6.614;2023-12-07T15:50:37;2.10;99.90